sensor_id;sensor_type;location;lat;lon;timestamp;temperature;humidity
8872;DHT22;4472;52.092;9.820;2023-04-03T00:00:58;2.20;99.90
8872;DHT22;4472;52.092;9.820;2023-04-03T00:03:45;2.20;99.90
8872;DHT22;4472;52.092;9.820;2023-04-03T00:06:32;2.10;99.90
8872;DHT22;4472;52.092;9.820;2023-04-03T00:09:20;2.00;99.90
8872;DHT22;4472;52.092;9.820;2023-04-03T00:12:07;2.10;99.90
8872;DHT22;4472;52.092;9.820;2023-04-03T00:17:43;2.00;99.90
8872;DHT22;4472;52.092;9.820;2023-04-03T00:20:31;2.00;99.90
8872;DHT22;4472;52.092;9.820;2023-04-03T00:23:19;2.10;99.90
8872;DHT22;4472;52.092;9.820;2023-04-03T00:26:06;2.00;99.90
8872;DHT22;4472;52.092;9.820;2023-04-03T00:28:53;1.90;99.90
8872;DHT22;4472;52.092;9.820;2023-04-03T00:31:40;1.90;99.90
8872;DHT22;4472;52.092;9.820;2023-04-03T00:34:29;1.80;99.90
8872;DHT22;4472;52.092;9.820;2023-04-03T00:37:16;1.90;99.90
8872;DHT22;4472;52.092;9.820;2023-04-03T00:40:06;1.90;99.90
8872;DHT22;4472;52.092;9.820;2023-04-03T00:42:57;1.80;99.90
8872;DHT22;4472;52.092;9.820;2023-04-03T00:45:45;1.90;99.90
8872;DHT22;4472;52.092;9.820;2023-04-03T00:48:36;1.70;99.90
8872;DHT22;4472;52.092;9.820;2023-04-03T00:51:26;1.60;99.90
8872;DHT22;4472;52.092;9.820;2023-04-03T00:54:13;1.70;99.90
8872;DHT22;4472;52.092;9.820;2023-04-03T00:57:01;1.60;99.90
8872;DHT22;4472;52.092;9.820;2023-04-03T00:59:54;1.50;99.90
8872;DHT22;4472;52.092;9.820;2023-04-03T01:02:42;1.30;99.90
8872;DHT22;4472;52.092;9.820;2023-04-03T01:05:29;1.30;99.90
8872;DHT22;4472;52.092;9.820;2023-04-03T01:08:18;1.10;99.90
8872;DHT22;4472;52.092;9.820;2023-04-03T01:13:52;0.90;99.90
8872;DHT22;4472;52.092;9.820;2023-04-03T01:16:40;0.80;99.90
8872;DHT22;4472;52.092;9.820;2023-04-03T01:19:27;0.80;99.90
8872;DHT22;4472;52.092;9.820;2023-04-03T01:22:19;0.70;99.90
8872;DHT22;4472;52.092;9.820;2023-04-03T01:25:13;0.70;99.90
8872;DHT22;4472;52.092;9.820;2023-04-03T01:28:00;0.60;99.90
8872;DHT22;4472;52.092;9.820;2023-04-03T01:30:51;0.60;99.90
8872;DHT22;4472;52.092;9.820;2023-04-03T01:33:42;0.50;99.90
8872;DHT22;4472;52.092;9.820;2023-04-03T01:36:31;0.40;99.90
8872;DHT22;4472;52.092;9.820;2023-04-03T01:39:19;0.40;99.90
8872;DHT22;4472;52.092;9.820;2023-04-03T01:42:06;0.40;99.90
8872;DHT22;4472;52.092;9.820;2023-04-03T01:44:53;0.30;99.90
8872;DHT22;4472;52.092;9.820;2023-04-03T01:47:40;0.60;99.90
8872;DHT22;4472;52.092;9.820;2023-04-03T01:50:29;0.30;99.90
8872;DHT22;4472;52.092;9.820;2023-04-03T01:53:16;0.20;99.90
8872;DHT22;4472;52.092;9.820;2023-04-03T01:56:04;0.20;99.90
8872;DHT22;4472;52.092;9.820;2023-04-03T01:58:51;0.30;99.90
8872;DHT22;4472;52.092;9.820;2023-04-03T02:01:39;0.40;99.90
8872;DHT22;4472;52.092;9.820;2023-04-03T02:04:26;0.40;99.90
8872;DHT22;4472;52.092;9.820;2023-04-03T02:07:14;0.40;99.90
8872;DHT22;4472;52.092;9.820;2023-04-03T02:10:02;0.30;99.90
8872;DHT22;4472;52.092;9.820;2023-04-03T02:12:49;0.40;99.90
8872;DHT22;4472;52.092;9.820;2023-04-03T02:15:38;0.40;99.90
8872;DHT22;4472;52.092;9.820;2023-04-03T02:18:25;0.40;99.90
8872;DHT22;4472;52.092;9.820;2023-04-03T02:21:12;0.50;99.90
8872;DHT22;4472;52.092;9.820;2023-04-03T02:24:01;0.50;99.90
8872;DHT22;4472;52.092;9.820;2023-04-03T02:26:48;0.50;99.90
8872;DHT22;4472;52.092;9.820;2023-04-03T02:29:35;0.50;99.90
8872;DHT22;4472;52.092;9.820;2023-04-03T02:32:22;0.50;99.90
8872;DHT22;4472;52.092;9.820;2023-04-03T02:35:10;0.40;99.90
8872;DHT22;4472;52.092;9.820;2023-04-03T02:40:46;0.30;99.90
8872;DHT22;4472;52.092;9.820;2023-04-03T02:43:33;0.40;99.90
8872;DHT22;4472;52.092;9.820;2023-04-03T02:46:21;0.40;99.90
8872;DHT22;4472;52.092;9.820;2023-04-03T02:49:08;0.40;99.90
8872;DHT22;4472;52.092;9.820;2023-04-03T02:51:55;-0.60;99.90
8872;DHT22;4472;52.092;9.820;2023-04-03T02:54:42;0.40;99.90
8872;DHT22;4472;52.092;9.820;2023-04-03T02:57:31;0.30;99.90
8872;DHT22;4472;52.092;9.820;2023-04-03T03:00:18;0.40;99.90
8872;DHT22;4472;52.092;9.820;2023-04-03T03:03:06;0.40;99.90
8872;DHT22;4472;52.092;9.820;2023-04-03T03:06:01;0.30;99.90
8872;DHT22;4472;52.092;9.820;2023-04-03T03:08:48;0.40;99.90
8872;DHT22;4472;52.092;9.820;2023-04-03T03:11:36;0.40;99.90
8872;DHT22;4472;52.092;9.820;2023-04-03T03:14:24;0.40;99.90
8872;DHT22;4472;52.092;9.820;2023-04-03T03:17:11;0.40;99.90
8872;DHT22;4472;52.092;9.820;2023-04-03T03:19:59;0.70;99.90
8872;DHT22;4472;52.092;9.820;2023-04-03T03:22:46;0.40;99.90
8872;DHT22;4472;52.092;9.820;2023-04-03T03:25:37;0.40;99.90
8872;DHT22;4472;52.092;9.820;2023-04-03T03:28:24;0.40;99.90
8872;DHT22;4472;52.092;9.820;2023-04-03T03:31:13;0.40;99.90
8872;DHT22;4472;52.092;9.820;2023-04-03T03:34:01;0.60;99.90
8872;DHT22;4472;52.092;9.820;2023-04-03T03:36:48;0.40;99.90
8872;DHT22;4472;52.092;9.820;2023-04-03T03:39:35;0.40;99.90
8872;DHT22;4472;52.092;9.820;2023-04-03T03:42:22;0.40;99.90
8872;DHT22;4472;52.092;9.820;2023-04-03T03:45:10;0.30;99.90
8872;DHT22;4472;52.092;9.820;2023-04-03T03:47:59;0.20;99.90
8872;DHT22;4472;52.092;9.820;2023-04-03T03:50:46;0.00;99.90
8872;DHT22;4472;52.092;9.820;2023-04-03T03:53:34;0.10;99.90
8872;DHT22;4472;52.092;9.820;2023-04-03T03:56:21;0.00;99.90
8872;DHT22;4472;52.092;9.820;2023-04-03T03:59:10;-0.20;99.90
8872;DHT22;4472;52.092;9.820;2023-04-03T04:04:46;-0.20;99.90
8872;DHT22;4472;52.092;9.820;2023-04-03T04:07:34;-0.30;99.90
8872;DHT22;4472;52.092;9.820;2023-04-03T04:10:21;-0.40;99.90
8872;DHT22;4472;52.092;9.820;2023-04-03T04:13:08;-0.40;99.90
8872;DHT22;4472;52.092;9.820;2023-04-03T04:15:55;-0.50;99.90
8872;DHT22;4472;52.092;9.820;2023-04-03T04:18:42;-0.50;99.90
8872;DHT22;4472;52.092;9.820;2023-04-03T04:21:31;-0.50;99.90
8872;DHT22;4472;52.092;9.820;2023-04-03T04:24:18;-0.50;99.90
8872;DHT22;4472;52.092;9.820;2023-04-03T04:27:05;-0.50;99.90
8872;DHT22;4472;52.092;9.820;2023-04-03T04:29:52;-0.40;99.90
8872;DHT22;4472;52.092;9.820;2023-04-03T04:32:39;-0.40;99.90
8872;DHT22;4472;52.092;9.820;2023-04-03T04:35:26;-0.30;99.90
8872;DHT22;4472;52.092;9.820;2023-04-03T04:38:15;-0.20;99.90
8872;DHT22;4472;52.092;9.820;2023-04-03T04:41:04;-0.30;99.90
8872;DHT22;4472;52.092;9.820;2023-04-03T04:43:52;-0.30;99.90
8872;DHT22;4472;52.092;9.820;2023-04-03T04:46:39;0.30;99.90
8872;DHT22;4472;52.092;9.820;2023-04-03T04:49:26;-0.40;99.90
8872;DHT22;4472;52.092;9.820;2023-04-03T04:52:13;-0.40;99.90
8872;DHT22;4472;52.092;9.820;2023-04-03T04:55:02;-0.50;99.90
8872;DHT22;4472;52.092;9.820;2023-04-03T04:57:49;-0.50;99.90
8872;DHT22;4472;52.092;9.820;2023-04-03T05:00:36;-0.50;99.90
8872;DHT22;4472;52.092;9.820;2023-04-03T05:03:23;-0.60;99.90
8872;DHT22;4472;52.092;9.820;2023-04-03T05:06:10;-0.70;99.90
8872;DHT22;4472;52.092;9.820;2023-04-03T05:08:57;-0.70;99.90
8872;DHT22;4472;52.092;9.820;2023-04-03T05:14:33;-0.70;99.90
8872;DHT22;4472;52.092;9.820;2023-04-03T05:17:21;-0.70;99.90
8872;DHT22;4472;52.092;9.820;2023-04-03T05:20:09;-0.70;99.90
8872;DHT22;4472;52.092;9.820;2023-04-03T05:22:56;-0.70;99.90
8872;DHT22;4472;52.092;9.820;2023-04-03T05:25:43;-0.70;99.90
8872;DHT22;4472;52.092;9.820;2023-04-03T05:28:32;-0.80;99.90
8872;DHT22;4472;52.092;9.820;2023-04-03T05:31:19;-0.80;99.90
8872;DHT22;4472;52.092;9.820;2023-04-03T05:34:06;-0.70;99.90
8872;DHT22;4472;52.092;9.820;2023-04-03T05:36:54;-0.70;99.90
8872;DHT22;4472;52.092;9.820;2023-04-03T05:42:28;-0.70;99.90
8872;DHT22;4472;52.092;9.820;2023-04-03T05:45:17;-0.70;99.90
8872;DHT22;4472;52.092;9.820;2023-04-03T05:48:04;-0.60;99.90
8872;DHT22;4472;52.092;9.820;2023-04-03T05:50:51;-0.60;99.90
8872;DHT22;4472;52.092;9.820;2023-04-03T05:53:39;-0.60;99.90
8872;DHT22;4472;52.092;9.820;2023-04-03T05:56:26;-0.50;99.90
8872;DHT22;4472;52.092;9.820;2023-04-03T05:59:13;-0.50;99.90
8872;DHT22;4472;52.092;9.820;2023-04-03T06:02:01;-0.50;99.90
8872;DHT22;4472;52.092;9.820;2023-04-03T06:04:49;-0.40;99.90
8872;DHT22;4472;52.092;9.820;2023-04-03T06:07:36;-0.40;99.90
8872;DHT22;4472;52.092;9.820;2023-04-03T06:10:23;-0.30;99.90
8872;DHT22;4472;52.092;9.820;2023-04-03T06:13:10;-0.30;99.90
8872;DHT22;4472;52.092;9.820;2023-04-03T06:15:58;-0.20;99.90
8872;DHT22;4472;52.092;9.820;2023-04-03T06:18:46;0.00;99.90
8872;DHT22;4472;52.092;9.820;2023-04-03T06:21:34;0.10;99.90
8872;DHT22;4472;52.092;9.820;2023-04-03T06:24:21;0.30;99.90
8872;DHT22;4472;52.092;9.820;2023-04-03T06:27:10;0.50;99.90
8872;DHT22;4472;52.092;9.820;2023-04-03T06:29:58;0.60;99.90
8872;DHT22;4472;52.092;9.820;2023-04-03T06:32:45;0.70;99.90
8872;DHT22;4472;52.092;9.820;2023-04-03T06:35:38;0.90;99.90
8872;DHT22;4472;52.092;9.820;2023-04-03T06:38:27;1.00;99.90
8872;DHT22;4472;52.092;9.820;2023-04-03T06:41:14;1.00;99.90
8872;DHT22;4472;52.092;9.820;2023-04-03T06:44:03;1.20;99.90
8872;DHT22;4472;52.092;9.820;2023-04-03T06:46:50;1.30;99.90
8872;DHT22;4472;52.092;9.820;2023-04-03T06:49:37;1.30;99.90
8872;DHT22;4472;52.092;9.820;2023-04-03T06:52:26;1.50;99.90
8872;DHT22;4472;52.092;9.820;2023-04-03T06:55:13;1.60;99.90
8872;DHT22;4472;52.092;9.820;2023-04-03T06:58:00;1.70;99.90
8872;DHT22;4472;52.092;9.820;2023-04-03T07:00:47;1.90;99.90
8872;DHT22;4472;52.092;9.820;2023-04-03T07:03:35;2.00;99.90
8872;DHT22;4472;52.092;9.820;2023-04-03T07:06:22;2.20;99.90
8872;DHT22;4472;52.092;9.820;2023-04-03T07:09:14;2.30;99.90
8872;DHT22;4472;52.092;9.820;2023-04-03T07:12:01;2.40;99.90
8872;DHT22;4472;52.092;9.820;2023-04-03T07:14:48;2.50;99.90
8872;DHT22;4472;52.092;9.820;2023-04-03T07:17:35;2.60;99.90
8872;DHT22;4472;52.092;9.820;2023-04-03T07:20:22;2.60;99.90
8872;DHT22;4472;52.092;9.820;2023-04-03T07:23:09;2.70;99.90
8872;DHT22;4472;52.092;9.820;2023-04-03T07:25:58;2.80;99.90
8872;DHT22;4472;52.092;9.820;2023-04-03T07:28:45;2.80;99.90
8872;DHT22;4472;52.092;9.820;2023-04-03T07:31:34;2.90;99.90
8872;DHT22;4472;52.092;9.820;2023-04-03T07:34:21;3.00;99.90
8872;DHT22;4472;52.092;9.820;2023-04-03T07:37:08;3.20;99.90
8872;DHT22;4472;52.092;9.820;2023-04-03T07:39:55;3.30;99.90
8872;DHT22;4472;52.092;9.820;2023-04-03T07:42:46;3.40;99.90
8872;DHT22;4472;52.092;9.820;2023-04-03T07:45:35;3.50;99.90
8872;DHT22;4472;52.092;9.820;2023-04-03T07:48:24;3.70;99.90
8872;DHT22;4472;52.092;9.820;2023-04-03T07:51:11;3.90;99.90
8872;DHT22;4472;52.092;9.820;2023-04-03T07:53:58;3.90;99.90
8872;DHT22;4472;52.092;9.820;2023-04-03T07:56:45;4.00;99.90
8872;DHT22;4472;52.092;9.820;2023-04-03T07:59:34;4.10;99.90
8872;DHT22;4472;52.092;9.820;2023-04-03T08:02:21;4.10;99.90
8872;DHT22;4472;52.092;9.820;2023-04-03T08:05:08;4.30;99.90
8872;DHT22;4472;52.092;9.820;2023-04-03T08:07:56;4.40;99.90
8872;DHT22;4472;52.092;9.820;2023-04-03T08:10:43;4.50;99.90
8872;DHT22;4472;52.092;9.820;2023-04-03T08:13:31;4.50;99.90
8872;DHT22;4472;52.092;9.820;2023-04-03T08:16:22;4.60;99.90
8872;DHT22;4472;52.092;9.820;2023-04-03T08:19:11;4.80;99.90
8872;DHT22;4472;52.092;9.820;2023-04-03T08:21:58;4.90;99.90
8872;DHT22;4472;52.092;9.820;2023-04-03T08:24:48;5.00;99.50
8872;DHT22;4472;52.092;9.820;2023-04-03T08:27:35;5.00;99.90
8872;DHT22;4472;52.092;9.820;2023-04-03T08:30:23;4.90;98.30
8872;DHT22;4472;52.092;9.820;2023-04-03T08:33:11;4.80;98.50
8872;DHT22;4472;52.092;9.820;2023-04-03T08:35:58;4.90;99.90
8872;DHT22;4472;52.092;9.820;2023-04-03T08:38:45;5.00;99.60
8872;DHT22;4472;52.092;9.820;2023-04-03T08:41:34;4.90;98.30
8872;DHT22;4472;52.092;9.820;2023-04-03T08:44:26;5.00;98.00
8872;DHT22;4472;52.092;9.820;2023-04-03T08:47:23;4.90;97.40
8872;DHT22;4472;52.092;9.820;2023-04-03T08:50:15;4.80;97.90
8872;DHT22;4472;52.092;9.820;2023-04-03T08:55:53;5.00;98.30
8872;DHT22;4472;52.092;9.820;2023-04-03T08:58:44;5.10;98.70
8872;DHT22;4472;52.092;9.820;2023-04-03T09:01:35;5.00;97.50
8872;DHT22;4472;52.092;9.820;2023-04-03T09:04:24;5.10;98.30
8872;DHT22;4472;52.092;9.820;2023-04-03T09:07:18;5.40;98.70
8872;DHT22;4472;52.092;9.820;2023-04-03T09:10:11;5.60;96.90
8872;DHT22;4472;52.092;9.820;2023-04-03T09:13:03;5.70;96.20
8872;DHT22;4472;52.092;9.820;2023-04-03T09:15:53;5.70;96.40
8872;DHT22;4472;52.092;9.820;2023-04-03T09:18:45;5.60;95.80
8872;DHT22;4472;52.092;9.820;2023-04-03T09:21:38;5.60;95.40
8872;DHT22;4472;52.092;9.820;2023-04-03T09:24:31;5.60;96.90
8872;DHT22;4472;52.092;9.820;2023-04-03T09:27:19;6.00;96.20
8872;DHT22;4472;52.092;9.820;2023-04-03T09:30:13;6.20;95.30
8872;DHT22;4472;52.092;9.820;2023-04-03T09:33:00;6.30;93.60
8872;DHT22;4472;52.092;9.820;2023-04-03T09:35:48;6.40;93.50
8872;DHT22;4472;52.092;9.820;2023-04-03T09:38:36;6.40;92.70
8872;DHT22;4472;52.092;9.820;2023-04-03T09:41:27;6.40;92.90
8872;DHT22;4472;52.092;9.820;2023-04-03T09:44:21;6.40;93.10
8872;DHT22;4472;52.092;9.820;2023-04-03T09:47:19;6.50;92.40
8872;DHT22;4472;52.092;9.820;2023-04-03T09:50:19;6.80;91.20
8872;DHT22;4472;52.092;9.820;2023-04-03T09:53:29;6.90;91.70
8872;DHT22;4472;52.092;9.820;2023-04-03T09:56:24;7.20;91.40
8872;DHT22;4472;52.092;9.820;2023-04-03T09:59:14;7.70;91.20
8872;DHT22;4472;52.092;9.820;2023-04-03T10:02:12;7.90;91.90
8872;DHT22;4472;52.092;9.820;2023-04-03T10:05:04;8.10;90.00
8872;DHT22;4472;52.092;9.820;2023-04-03T10:08:21;8.10;90.60
8872;DHT22;4472;52.092;9.820;2023-04-03T10:11:15;8.20;89.50
8872;DHT22;4472;52.092;9.820;2023-04-03T10:14:04;8.20;89.70
8872;DHT22;4472;52.092;9.820;2023-04-03T10:16:59;8.30;90.60
8872;DHT22;4472;52.092;9.820;2023-04-03T10:19:53;8.20;89.50
8872;DHT22;4472;52.092;9.820;2023-04-03T10:22:49;8.10;87.20
8872;DHT22;4472;52.092;9.820;2023-04-03T10:25:41;7.90;87.60
8872;DHT22;4472;52.092;9.820;2023-04-03T10:28:34;7.70;87.40
8872;DHT22;4472;52.092;9.820;2023-04-03T10:31:32;7.90;92.80
8872;DHT22;4472;52.092;9.820;2023-04-03T10:34:25;7.90;91.00
8872;DHT22;4472;52.092;9.820;2023-04-03T10:37:20;8.00;85.50
8872;DHT22;4472;52.092;9.820;2023-04-03T10:40:18;8.00;85.20
8872;DHT22;4472;52.092;9.820;2023-04-03T10:43:12;8.00;84.70
8872;DHT22;4472;52.092;9.820;2023-04-03T10:46:02;7.80;83.70
8872;DHT22;4472;52.092;9.820;2023-04-03T10:49:02;7.50;82.20
8872;DHT22;4472;52.092;9.820;2023-04-03T10:51:56;7.40;82.00
8872;DHT22;4472;52.092;9.820;2023-04-03T10:55:00;7.40;83.20
8872;DHT22;4472;52.092;9.820;2023-04-03T10:57:50;7.50;82.00
8872;DHT22;4472;52.092;9.820;2023-04-03T11:00:40;7.70;88.10
8872;DHT22;4472;52.092;9.820;2023-04-03T11:03:30;8.30;88.60
8872;DHT22;4472;52.092;9.820;2023-04-03T11:06:21;8.40;82.30
8872;DHT22;4472;52.092;9.820;2023-04-03T11:09:18;8.40;76.70
8872;DHT22;4472;52.092;9.820;2023-04-03T11:12:11;8.30;82.40
8872;DHT22;4472;52.092;9.820;2023-04-03T11:15:02;8.60;81.60
8872;DHT22;4472;52.092;9.820;2023-04-03T11:17:53;8.70;78.50
8872;DHT22;4472;52.092;9.820;2023-04-03T11:20:43;8.50;76.60
8872;DHT22;4472;52.092;9.820;2023-04-03T11:23:34;8.30;76.10
8872;DHT22;4472;52.092;9.820;2023-04-03T11:26:23;8.00;74.10
8872;DHT22;4472;52.092;9.820;2023-04-03T11:29:14;8.10;78.50
8872;DHT22;4472;52.092;9.820;2023-04-03T11:32:11;7.70;78.50
8872;DHT22;4472;52.092;9.820;2023-04-03T11:35:05;7.70;83.10
8872;DHT22;4472;52.092;9.820;2023-04-03T11:37:54;7.50;77.50
8872;DHT22;4472;52.092;9.820;2023-04-03T11:40:44;7.40;78.10
8872;DHT22;4472;52.092;9.820;2023-04-03T11:43:33;7.30;78.60
8872;DHT22;4472;52.092;9.820;2023-04-03T11:46:20;7.30;78.40
8872;DHT22;4472;52.092;9.820;2023-04-03T11:52:59;7.10;77.50
8872;DHT22;4472;52.092;9.820;2023-04-03T11:55:58;7.30;83.00
8872;DHT22;4472;52.092;9.820;2023-04-03T11:59:15;7.70;91.00
8872;DHT22;4472;52.092;9.820;2023-04-03T12:02:35;7.90;86.30
8872;DHT22;4472;52.092;9.820;2023-04-03T12:05:28;8.10;80.70
8872;DHT22;4472;52.092;9.820;2023-04-03T12:08:22;8.00;81.50
8872;DHT22;4472;52.092;9.820;2023-04-03T12:11:24;8.00;82.50
8872;DHT22;4472;52.092;9.820;2023-04-03T12:14:14;7.90;82.50
8872;DHT22;4472;52.092;9.820;2023-04-03T12:17:02;7.90;78.90
8872;DHT22;4472;52.092;9.820;2023-04-03T12:19:49;7.90;78.70
8872;DHT22;4472;52.092;9.820;2023-04-03T12:22:36;7.80;80.00
8872;DHT22;4472;52.092;9.820;2023-04-03T12:25:48;8.00;82.60
8872;DHT22;4472;52.092;9.820;2023-04-03T12:28:39;7.70;82.90
8872;DHT22;4472;52.092;9.820;2023-04-03T12:31:38;7.60;90.00
8872;DHT22;4472;52.092;9.820;2023-04-03T12:34:40;7.80;91.40
8872;DHT22;4472;52.092;9.820;2023-04-03T12:37:46;8.10;90.40
8872;DHT22;4472;52.092;9.820;2023-04-03T12:40:39;8.20;86.70
8872;DHT22;4472;52.092;9.820;2023-04-03T12:44:01;8.20;82.50
8872;DHT22;4472;52.092;9.820;2023-04-03T12:46:52;8.20;81.00
8872;DHT22;4472;52.092;9.820;2023-04-03T12:49:42;8.20;82.90
8872;DHT22;4472;52.092;9.820;2023-04-03T12:52:35;8.30;84.10
8872;DHT22;4472;52.092;9.820;2023-04-03T12:55:23;8.10;78.50
8872;DHT22;4472;52.092;9.820;2023-04-03T12:58:20;8.10;80.50
8872;DHT22;4472;52.092;9.820;2023-04-03T13:01:12;8.20;88.70
8872;DHT22;4472;52.092;9.820;2023-04-03T13:04:00;8.50;80.80
8872;DHT22;4472;52.092;9.820;2023-04-03T13:06:47;8.80;91.50
8872;DHT22;4472;52.092;9.820;2023-04-03T13:09:34;8.50;90.40
8872;DHT22;4472;52.092;9.820;2023-04-03T13:12:21;8.50;83.50
8872;DHT22;4472;52.092;9.820;2023-04-03T13:15:14;8.70;83.60
8872;DHT22;4472;52.092;9.820;2023-04-03T13:18:03;8.90;89.00
8872;DHT22;4472;52.092;9.820;2023-04-03T13:20:51;9.00;91.20
8872;DHT22;4472;52.092;9.820;2023-04-03T13:23:40;9.10;90.20
8872;DHT22;4472;52.092;9.820;2023-04-03T13:26:31;8.80;74.60
8872;DHT22;4472;52.092;9.820;2023-04-03T13:29:23;8.80;75.50
8872;DHT22;4472;52.092;9.820;2023-04-03T13:32:18;8.50;73.20
8872;DHT22;4472;52.092;9.820;2023-04-03T13:35:33;8.30;84.60
8872;DHT22;4472;52.092;9.820;2023-04-03T13:38:23;8.20;88.70
8872;DHT22;4472;52.092;9.820;2023-04-03T13:41:25;8.10;75.10
8872;DHT22;4472;52.092;9.820;2023-04-03T13:44:26;7.90;74.70
8872;DHT22;4472;52.092;9.820;2023-04-03T13:47:18;7.90;77.60
8872;DHT22;4472;52.092;9.820;2023-04-03T13:50:15;8.00;75.60
8872;DHT22;4472;52.092;9.820;2023-04-03T13:53:11;8.00;73.00
8872;DHT22;4472;52.092;9.820;2023-04-03T13:56:06;8.10;72.50
8872;DHT22;4472;52.092;9.820;2023-04-03T13:58:57;8.30;73.90
8872;DHT22;4472;52.092;9.820;2023-04-03T14:01:46;8.60;72.90
8872;DHT22;4472;52.092;9.820;2023-04-03T14:04:47;8.60;72.40
8872;DHT22;4472;52.092;9.820;2023-04-03T14:07:35;8.60;72.40
8872;DHT22;4472;52.092;9.820;2023-04-03T14:10:25;8.50;73.50
8872;DHT22;4472;52.092;9.820;2023-04-03T14:13:14;9.20;75.90
8872;DHT22;4472;52.092;9.820;2023-04-03T14:16:01;8.70;73.90
8872;DHT22;4472;52.092;9.820;2023-04-03T14:21:37;9.00;72.90
8872;DHT22;4472;52.092;9.820;2023-04-03T14:24:24;9.00;71.00
8872;DHT22;4472;52.092;9.820;2023-04-03T14:27:17;8.90;72.90
8872;DHT22;4472;52.092;9.820;2023-04-03T14:30:09;9.00;74.40
8872;DHT22;4472;52.092;9.820;2023-04-03T14:33:00;9.10;75.10
8872;DHT22;4472;52.092;9.820;2023-04-03T14:35:47;9.10;74.50
8872;DHT22;4472;52.092;9.820;2023-04-03T14:38:35;9.00;72.70
8872;DHT22;4472;52.092;9.820;2023-04-03T14:41:24;8.80;73.80
8872;DHT22;4472;52.092;9.820;2023-04-03T14:44:13;8.50;71.40
8872;DHT22;4472;52.092;9.820;2023-04-03T14:47:00;8.20;70.60
8872;DHT22;4472;52.092;9.820;2023-04-03T14:52:36;8.10;71.60
8872;DHT22;4472;52.092;9.820;2023-04-03T14:55:24;8.20;72.50
8872;DHT22;4472;52.092;9.820;2023-04-03T14:58:13;8.50;71.60
8872;DHT22;4472;52.092;9.820;2023-04-03T15:01:02;8.60;73.60
8872;DHT22;4472;52.092;9.820;2023-04-03T15:03:50;8.40;69.70
8872;DHT22;4472;52.092;9.820;2023-04-03T15:06:37;8.30;70.90
8872;DHT22;4472;52.092;9.820;2023-04-03T15:09:26;8.10;71.10
8872;DHT22;4472;52.092;9.820;2023-04-03T15:12:14;8.10;72.90
8872;DHT22;4472;52.092;9.820;2023-04-03T15:15:01;8.00;71.10
8872;DHT22;4472;52.092;9.820;2023-04-03T15:17:52;8.10;72.50
8872;DHT22;4472;52.092;9.820;2023-04-03T15:20:40;8.10;71.50
8872;DHT22;4472;52.092;9.820;2023-04-03T15:23:29;8.10;70.30
8872;DHT22;4472;52.092;9.820;2023-04-03T15:26:16;8.10;71.50
8872;DHT22;4472;52.092;9.820;2023-04-03T15:29:04;8.10;71.20
8872;DHT22;4472;52.092;9.820;2023-04-03T15:31:51;8.00;72.10
8872;DHT22;4472;52.092;9.820;2023-04-03T15:34:41;7.80;71.10
8872;DHT22;4472;52.092;9.820;2023-04-03T15:37:28;7.70;70.30
8872;DHT22;4472;52.092;9.820;2023-04-03T15:40:15;7.50;71.90
8872;DHT22;4472;52.092;9.820;2023-04-03T15:43:02;7.50;72.50
8872;DHT22;4472;52.092;9.820;2023-04-03T15:45:50;7.60;72.60
8872;DHT22;4472;52.092;9.820;2023-04-03T15:48:38;7.70;72.00
8872;DHT22;4472;52.092;9.820;2023-04-03T15:51:26;7.90;72.10
8872;DHT22;4472;52.092;9.820;2023-04-03T15:54:13;8.10;71.60
8872;DHT22;4472;52.092;9.820;2023-04-03T15:57:01;8.20;72.90
8872;DHT22;4472;52.092;9.820;2023-04-03T15:59:48;8.30;73.90
8872;DHT22;4472;52.092;9.820;2023-04-03T16:02:35;8.20;73.10
8872;DHT22;4472;52.092;9.820;2023-04-03T16:05:23;8.20;72.90
8872;DHT22;4472;52.092;9.820;2023-04-03T16:08:12;8.00;72.80
8872;DHT22;4472;52.092;9.820;2023-04-03T16:10:59;7.80;70.90
8872;DHT22;4472;52.092;9.820;2023-04-03T16:13:47;7.70;78.80
8872;DHT22;4472;52.092;9.820;2023-04-03T16:16:35;7.50;71.60
8872;DHT22;4472;52.092;9.820;2023-04-03T16:19:22;7.40;75.50
8872;DHT22;4472;52.092;9.820;2023-04-03T16:22:10;7.40;74.10
8872;DHT22;4472;52.092;9.820;2023-04-03T16:24:59;7.40;77.20
8872;DHT22;4472;52.092;9.820;2023-04-03T16:27:46;7.50;82.90
8872;DHT22;4472;52.092;9.820;2023-04-03T16:30:33;7.40;74.40
8872;DHT22;4472;52.092;9.820;2023-04-03T16:33:20;7.40;78.20
8872;DHT22;4472;52.092;9.820;2023-04-03T16:36:08;7.30;79.90
8872;DHT22;4472;52.092;9.820;2023-04-03T16:38:55;7.40;73.60
8872;DHT22;4472;52.092;9.820;2023-04-03T16:41:43;7.30;71.70
8872;DHT22;4472;52.092;9.820;2023-04-03T16:44:31;7.20;75.30
8872;DHT22;4472;52.092;9.820;2023-04-03T16:47:18;7.30;79.30
8872;DHT22;4472;52.092;9.820;2023-04-03T16:50:06;7.10;77.10
8872;DHT22;4472;52.092;9.820;2023-04-03T16:52:53;7.10;76.40
8872;DHT22;4472;52.092;9.820;2023-04-03T16:55:41;7.20;81.90
8872;DHT22;4472;52.092;9.820;2023-04-03T16:58:29;7.00;81.10
8872;DHT22;4472;52.092;9.820;2023-04-03T17:01:18;6.90;80.00
8872;DHT22;4472;52.092;9.820;2023-04-03T17:04:05;6.90;79.20
8872;DHT22;4472;52.092;9.820;2023-04-03T17:06:52;6.80;79.20
8872;DHT22;4472;52.092;9.820;2023-04-03T17:09:39;6.90;82.00
8872;DHT22;4472;52.092;9.820;2023-04-03T17:12:27;6.90;79.20
8872;DHT22;4472;52.092;9.820;2023-04-03T17:15:15;6.90;83.40
8872;DHT22;4472;52.092;9.820;2023-04-03T17:18:03;6.90;81.60
8872;DHT22;4472;52.092;9.820;2023-04-03T17:20:50;6.90;84.70
8872;DHT22;4472;52.092;9.820;2023-04-03T17:23:38;6.70;74.60
8872;DHT22;4472;52.092;9.820;2023-04-03T17:26:26;6.20;74.40
8872;DHT22;4472;52.092;9.820;2023-04-03T17:29:13;6.60;77.40
8872;DHT22;4472;52.092;9.820;2023-04-03T17:32:02;6.70;82.60
8872;DHT22;4472;52.092;9.820;2023-04-03T17:34:49;6.50;76.20
8872;DHT22;4472;52.092;9.820;2023-04-03T17:37:36;6.50;75.70
8872;DHT22;4472;52.092;9.820;2023-04-03T17:40:23;6.40;81.80
8872;DHT22;4472;52.092;9.820;2023-04-03T17:43:10;6.50;84.50
8872;DHT22;4472;52.092;9.820;2023-04-03T17:46:00;6.30;81.50
8872;DHT22;4472;52.092;9.820;2023-04-03T17:48:50;6.40;84.40
8872;DHT22;4472;52.092;9.820;2023-04-03T17:51:38;6.20;86.10
8872;DHT22;4472;52.092;9.820;2023-04-03T17:54:25;6.10;82.10
8872;DHT22;4472;52.092;9.820;2023-04-03T17:57:12;6.10;81.20
8872;DHT22;4472;52.092;9.820;2023-04-03T17:59:59;6.10;82.90
8872;DHT22;4472;52.092;9.820;2023-04-03T18:02:46;6.00;81.80
8872;DHT22;4472;52.092;9.820;2023-04-03T18:05:36;5.90;83.90
8872;DHT22;4472;52.092;9.820;2023-04-03T18:08:24;6.00;83.60
8872;DHT22;4472;52.092;9.820;2023-04-03T18:11:11;5.70;80.70
8872;DHT22;4472;52.092;9.820;2023-04-03T18:14:00;5.60;82.90
8872;DHT22;4472;52.092;9.820;2023-04-03T18:16:47;5.60;83.20
8872;DHT22;4472;52.092;9.820;2023-04-03T18:19:35;5.60;87.90
8872;DHT22;4472;52.092;9.820;2023-04-03T18:22:24;5.40;89.30
8872;DHT22;4472;52.092;9.820;2023-04-03T18:25:11;5.40;87.80
8872;DHT22;4472;52.092;9.820;2023-04-03T18:28:01;5.40;90.00
8872;DHT22;4472;52.092;9.820;2023-04-03T18:30:51;5.30;84.50
8872;DHT22;4472;52.092;9.820;2023-04-03T18:33:38;5.30;92.60
8872;DHT22;4472;52.092;9.820;2023-04-03T18:36:26;5.20;86.60
8872;DHT22;4472;52.092;9.820;2023-04-03T18:39:15;5.20;92.30
8872;DHT22;4472;52.092;9.820;2023-04-03T18:42:04;5.10;95.00
8872;DHT22;4472;52.092;9.820;2023-04-03T18:44:54;5.00;93.50
8872;DHT22;4472;52.092;9.820;2023-04-03T18:47:42;5.00;90.10
8872;DHT22;4472;52.092;9.820;2023-04-03T18:50:29;4.90;91.00
8872;DHT22;4472;52.092;9.820;2023-04-03T18:53:16;4.90;90.00
8872;DHT22;4472;52.092;9.820;2023-04-03T18:56:05;4.80;86.90
8872;DHT22;4472;52.092;9.820;2023-04-03T18:58:53;4.80;85.50
8872;DHT22;4472;52.092;9.820;2023-04-03T19:01:40;4.70;90.10
8872;DHT22;4472;52.092;9.820;2023-04-03T19:04:28;5.00;91.40
8872;DHT22;4472;52.092;9.820;2023-04-03T19:07:15;4.70;86.40
8872;DHT22;4472;52.092;9.820;2023-04-03T19:10:03;4.50;87.50
8872;DHT22;4472;52.092;9.820;2023-04-03T19:12:51;4.40;90.00